Aviation Digital Data Service (ADDS)

Output produced by METARs form (1814 UTC 19 April 2019)
found at http://www.aviationweather.gov/metar/data/
 
METAR text: ESSA 191750Z 03003KT CAVOK 14/M04 Q1035 NOSIG
Conditions at: ESSA (STOCKHOLM/ARLAND, SE) observed 1750 UTC 19 April 2019
Temperature: 14.0°C (57°F)
Dewpoint: -4.0°C (25°F) [RH = 28%]
Pressure (altimeter): 30.56 inches Hg (1035.0 mb)
Winds: from the NNE (30 degrees) at 3 MPH (3 knots; 1.5 m/s)
Visibility: 6 or more miles (10+ km)
Ceiling: ceiling and visibility are OK
Clouds: unknown
Weather: no significant weather observed at this time

METAR text: ESSA 191720Z 35003KT CAVOK 16/M04 Q1034 NOSIG
Conditions at: ESSA (STOCKHOLM/ARLAND, SE) observed 1720 UTC 19 April 2019
Temperature: 16.0°C (61°F)
Dewpoint: -4.0°C (25°F) [RH = 25%]
Pressure (altimeter): 30.53 inches Hg (1034.0 mb)
Winds: from the N (350 degrees) at 3 MPH (3 knots; 1.5 m/s)
Visibility: 6 or more miles (10+ km)
Ceiling: ceiling and visibility are OK
Clouds: unknown
Weather: no significant weather observed at this time

METAR text: ESSA 191650Z 02004KT CAVOK 16/M05 Q1035 NOSIG
Conditions at: ESSA (STOCKHOLM/ARLAND, SE) observed 1650 UTC 19 April 2019
Temperature: 16.0°C (61°F)
Dewpoint: -5.0°C (23°F) [RH = 23%]
Pressure (altimeter): 30.56 inches Hg (1035.0 mb)
Winds: from the NNE (20 degrees) at 5 MPH (4 knots; 2.1 m/s)
Visibility: 6 or more miles (10+ km)
Ceiling: ceiling and visibility are OK
Clouds: unknown
Weather: no significant weather observed at this time

METAR text: ESSA 191620Z 02007KT CAVOK 16/M05 Q1035 NOSIG
Conditions at: ESSA (STOCKHOLM/ARLAND, SE) observed 1620 UTC 19 April 2019
Temperature: 16.0°C (61°F)
Dewpoint: -5.0°C (23°F) [RH = 23%]
Pressure (altimeter): 30.56 inches Hg (1035.0 mb)
Winds: from the NNE (20 degrees) at 8 MPH (7 knots; 3.6 m/s)
Visibility: 6 or more miles (10+ km)
Ceiling: ceiling and visibility are OK
Clouds: unknown
Weather: no significant weather observed at this time

METAR text: ESSA 191550Z 02008KT CAVOK 17/M05 Q1035 NOSIG
Conditions at: ESSA (STOCKHOLM/ARLAND, SE) observed 1550 UTC 19 April 2019
Temperature: 17.0°C (63°F)
Dewpoint: -5.0°C (23°F) [RH = 22%]
Pressure (altimeter): 30.56 inches Hg (1035.0 mb)
Winds: from the NNE (20 degrees) at 9 MPH (8 knots; 4.1 m/s)
Visibility: 6 or more miles (10+ km)
Ceiling: ceiling and visibility are OK
Clouds: unknown
Weather: no significant weather observed at this time

METAR text: ESSA 191520Z 03009KT 350V070 CAVOK 17/M03 Q1035 NOSIG
Conditions at: ESSA (STOCKHOLM/ARLAND, SE) observed 1520 UTC 19 April 2019
Temperature: 17.0°C (63°F)
Dewpoint: -3.0°C (27°F) [RH = 25%]
Pressure (altimeter): 30.56 inches Hg (1035.0 mb)
Winds: from the NNE (30 degrees) at 10 MPH (9 knots; 4.6 m/s)
Visibility: 6 or more miles (10+ km)
Ceiling: ceiling and visibility are OK
Clouds: unknown
Weather: no significant weather observed at this time

METAR text: ESSA 191450Z 01010KT CAVOK 17/M03 Q1035 NOSIG
Conditions at: ESSA (STOCKHOLM/ARLAND, SE) observed 1450 UTC 19 April 2019
Temperature: 17.0°C (63°F)
Dewpoint: -3.0°C (27°F) [RH = 25%]
Pressure (altimeter): 30.56 inches Hg (1035.0 mb)
Winds: from the N (10 degrees) at 12 MPH (10 knots; 5.1 m/s)
Visibility: 6 or more miles (10+ km)
Ceiling: ceiling and visibility are OK
Clouds: unknown
Weather: no significant weather observed at this time

METAR text: ESSA 191420Z 02009KT CAVOK 17/M03 Q1035 NOSIG
Conditions at: ESSA (STOCKHOLM/ARLAND, SE) observed 1420 UTC 19 April 2019
Temperature: 17.0°C (63°F)
Dewpoint: -3.0°C (27°F) [RH = 25%]
Pressure (altimeter): 30.56 inches Hg (1035.0 mb)
Winds: from the NNE (20 degrees) at 10 MPH (9 knots; 4.6 m/s)
Visibility: 6 or more miles (10+ km)
Ceiling: ceiling and visibility are OK
Clouds: unknown
Weather: no significant weather observed at this time

METAR text: ESSA 191350Z 01009KT CAVOK 17/M02 Q1035 NOSIG
Conditions at: ESSA (STOCKHOLM/ARLAND, SE) observed 1350 UTC 19 April 2019
Temperature: 17.0°C (63°F)
Dewpoint: -2.0°C (28°F) [RH = 27%]
Pressure (altimeter): 30.56 inches Hg (1035.0 mb)
Winds: from the N (10 degrees) at 10 MPH (9 knots; 4.6 m/s)
Visibility: 6 or more miles (10+ km)
Ceiling: ceiling and visibility are OK
Clouds: unknown
Weather: no significant weather observed at this time

METAR text: ESSA 191320Z 01008KT 320V050 CAVOK 18/M02 Q1035 NOSIG
Conditions at: ESSA (STOCKHOLM/ARLAND, SE) observed 1320 UTC 19 April 2019
Temperature: 18.0°C (64°F)
Dewpoint: -2.0°C (28°F) [RH = 26%]
Pressure (altimeter): 30.56 inches Hg (1035.0 mb)
Winds: from the N (10 degrees) at 9 MPH (8 knots; 4.1 m/s)
Visibility: 6 or more miles (10+ km)
Ceiling: ceiling and visibility are OK
Clouds: unknown
Weather: no significant weather observed at this time

METAR text: ESSA 191250Z 36010KT CAVOK 17/M02 Q1035 NOSIG
Conditions at: ESSA (STOCKHOLM/ARLAND, SE) observed 1250 UTC 19 April 2019
Temperature: 17.0°C (63°F)
Dewpoint: -2.0°C (28°F) [RH = 27%]
Pressure (altimeter): 30.56 inches Hg (1035.0 mb)
Winds: from the N (360 degrees) at 12 MPH (10 knots; 5.1 m/s)
Visibility: 6 or more miles (10+ km)
Ceiling: ceiling and visibility are OK
Clouds: unknown
Weather: no significant weather observed at this time

METAR text: ESSA 191220Z 33009KT CAVOK 18/M01 Q1035 NOSIG
Conditions at: ESSA (STOCKHOLM/ARLAND, SE) observed 1220 UTC 19 April 2019
Temperature: 18.0°C (64°F)
Dewpoint: -1.0°C (30°F) [RH = 28%]
Pressure (altimeter): 30.56 inches Hg (1035.0 mb)
Winds: from the NNW (330 degrees) at 10 MPH (9 knots; 4.6 m/s)
Visibility: 6 or more miles (10+ km)
Ceiling: ceiling and visibility are OK
Clouds: unknown
Weather: no significant weather observed at this time

METAR text: ESSA 191150Z 35009KT 320V020 CAVOK 18/M01 Q1035 NOSIG
Conditions at: ESSA (STOCKHOLM/ARLAND, SE) observed 1150 UTC 19 April 2019
Temperature: 18.0°C (64°F)
Dewpoint: -1.0°C (30°F) [RH = 28%]
Pressure (altimeter): 30.56 inches Hg (1035.0 mb)
Winds: from the N (350 degrees) at 10 MPH (9 knots; 4.6 m/s)
Visibility: 6 or more miles (10+ km)
Ceiling: ceiling and visibility are OK
Clouds: unknown
Weather: no significant weather observed at this time

METAR text: ESSA 191120Z 34010KT 300V010 CAVOK 17/M03 Q1036 NOSIG
Conditions at: ESSA (STOCKHOLM/ARLAND, SE) observed 1120 UTC 19 April 2019
Temperature: 17.0°C (63°F)
Dewpoint: -3.0°C (27°F) [RH = 25%]
Pressure (altimeter): 30.59 inches Hg (1036.0 mb)
Winds: from the NNW (340 degrees) at 12 MPH (10 knots; 5.1 m/s)
Visibility: 6 or more miles (10+ km)
Ceiling: ceiling and visibility are OK
Clouds: unknown
Weather: no significant weather observed at this time

METAR text: ESSA 191050Z 33009KT CAVOK 18/M02 Q1036 NOSIG
Conditions at: ESSA (STOCKHOLM/ARLAND, SE) observed 1050 UTC 19 April 2019
Temperature: 18.0°C (64°F)
Dewpoint: -2.0°C (28°F) [RH = 26%]
Pressure (altimeter): 30.59 inches Hg (1036.0 mb)
Winds: from the NNW (330 degrees) at 10 MPH (9 knots; 4.6 m/s)
Visibility: 6 or more miles (10+ km)
Ceiling: ceiling and visibility are OK
Clouds: unknown
Weather: no significant weather observed at this time

METAR text: ESSA 191020Z 32010KT CAVOK 17/M02 Q1036 NOSIG
Conditions at: ESSA (STOCKHOLM/ARLAND, SE) observed 1020 UTC 19 April 2019
Temperature: 17.0°C (63°F)
Dewpoint: -2.0°C (28°F) [RH = 27%]
Pressure (altimeter): 30.59 inches Hg (1036.0 mb)
Winds: from the NW (320 degrees) at 12 MPH (10 knots; 5.1 m/s)
Visibility: 6 or more miles (10+ km)
Ceiling: ceiling and visibility are OK
Clouds: unknown
Weather: no significant weather observed at this time

METAR text: ESSA 190950Z 34010KT CAVOK 16/M02 Q1036 NOSIG
Conditions at: ESSA (STOCKHOLM/ARLAND, SE) observed 0950 UTC 19 April 2019
Temperature: 16.0°C (61°F)
Dewpoint: -2.0°C (28°F) [RH = 29%]
Pressure (altimeter): 30.59 inches Hg (1036.0 mb)
Winds: from the NNW (340 degrees) at 12 MPH (10 knots; 5.1 m/s)
Visibility: 6 or more miles (10+ km)
Ceiling: ceiling and visibility are OK
Clouds: unknown
Weather: no significant weather observed at this time

METAR text: ESSA 190920Z 32009KT 290V350 CAVOK 17/M03 Q1036 NOSIG
Conditions at: ESSA (STOCKHOLM/ARLAND, SE) observed 0920 UTC 19 April 2019
Temperature: 17.0°C (63°F)
Dewpoint: -3.0°C (27°F) [RH = 25%]
Pressure (altimeter): 30.59 inches Hg (1036.0 mb)
Winds: from the NW (320 degrees) at 10 MPH (9 knots; 4.6 m/s)
Visibility: 6 or more miles (10+ km)
Ceiling: ceiling and visibility are OK
Clouds: unknown
Weather: no significant weather observed at this time

METAR text: ESSA 190850Z 32005KT 290V350 CAVOK 16/00 Q1036 NOSIG
Conditions at: ESSA (STOCKHOLM/ARLAND, SE) observed 0850 UTC 19 April 2019
Temperature: 16.0°C (61°F)
Dewpoint: 0.0°C (32°F) [RH = 34%]
Pressure (altimeter): 30.59 inches Hg (1036.0 mb)
Winds: from the NW (320 degrees) at 6 MPH (5 knots; 2.6 m/s)
Visibility: 6 or more miles (10+ km)
Ceiling: ceiling and visibility are OK
Clouds: unknown
Weather: no significant weather observed at this time

METAR text: ESSA 190820Z 34005KT 300V030 CAVOK 15/01 Q1036 NOSIG
Conditions at: ESSA (STOCKHOLM/ARLAND, SE) observed 0820 UTC 19 April 2019
Temperature: 15.0°C (59°F)
Dewpoint: 1.0°C (34°F) [RH = 39%]
Pressure (altimeter): 30.59 inches Hg (1036.0 mb)
Winds: from the NNW (340 degrees) at 6 MPH (5 knots; 2.6 m/s)
Visibility: 6 or more miles (10+ km)
Ceiling: ceiling and visibility are OK
Clouds: unknown
Weather: no significant weather observed at this time

METAR text: ESSA 190750Z 30004KT 260V340 CAVOK 14/01 Q1036 NOSIG
Conditions at: ESSA (STOCKHOLM/ARLAND, SE) observed 0750 UTC 19 April 2019
Temperature: 14.0°C (57°F)
Dewpoint: 1.0°C (34°F) [RH = 41%]
Pressure (altimeter): 30.59 inches Hg (1036.0 mb)
Winds: from the WNW (300 degrees) at 5 MPH (4 knots; 2.1 m/s)
Visibility: 6 or more miles (10+ km)
Ceiling: ceiling and visibility are OK
Clouds: unknown
Weather: no significant weather observed at this time

METAR text: ESSA 190720Z 28003KT 240V300 CAVOK 12/01 Q1036 NOSIG
Conditions at: ESSA (STOCKHOLM/ARLAND, SE) observed 0720 UTC 19 April 2019
Temperature: 12.0°C (54°F)
Dewpoint: 1.0°C (34°F) [RH = 47%]
Pressure (altimeter): 30.59 inches Hg (1036.0 mb)
Winds: from the W (280 degrees) at 3 MPH (3 knots; 1.5 m/s)
Visibility: 6 or more miles (10+ km)
Ceiling: ceiling and visibility are OK
Clouds: unknown
Weather: no significant weather observed at this time

METAR text: ESSA 190650Z 34004KT 300V020 CAVOK 10/01 Q1036 NOSIG
Conditions at: ESSA (STOCKHOLM/ARLAND, SE) observed 0650 UTC 19 April 2019
Temperature: 10.0°C (50°F)
Dewpoint: 1.0°C (34°F) [RH = 53%]
Pressure (altimeter): 30.59 inches Hg (1036.0 mb)
Winds: from the NNW (340 degrees) at 5 MPH (4 knots; 2.1 m/s)
Visibility: 6 or more miles (10+ km)
Ceiling: ceiling and visibility are OK
Clouds: unknown
Weather: no significant weather observed at this time

METAR text: ESSA 190620Z 28004KT 250V320 CAVOK 08/01 Q1036 NOSIG
Conditions at: ESSA (STOCKHOLM/ARLAND, SE) observed 0620 UTC 19 April 2019
Temperature: 8.0°C (46°F)
Dewpoint: 1.0°C (34°F) [RH = 61%]
Pressure (altimeter): 30.59 inches Hg (1036.0 mb)
Winds: from the W (280 degrees) at 5 MPH (4 knots; 2.1 m/s)
Visibility: 6 or more miles (10+ km)
Ceiling: ceiling and visibility are OK
Clouds: unknown
Weather: no significant weather observed at this time

METAR text: ESSA 190550Z 27004KT 240V310 CAVOK 06/00 Q1036 NOSIG
Conditions at: ESSA (STOCKHOLM/ARLAND, SE) observed 0550 UTC 19 April 2019
Temperature: 6.0°C (43°F)
Dewpoint: 0.0°C (32°F) [RH = 65%]
Pressure (altimeter): 30.59 inches Hg (1036.0 mb)
Winds: from the W (270 degrees) at 5 MPH (4 knots; 2.1 m/s)
Visibility: 6 or more miles (10+ km)
Ceiling: ceiling and visibility are OK
Clouds: unknown
Weather: no significant weather observed at this time

METAR text: ESSA 190520Z VRB03KT CAVOK 04/M00 Q1036 NOSIG
Conditions at: ESSA (STOCKHOLM/ARLAND, SE) observed 0520 UTC 19 April 2019
Temperature: 4.0°C (39°F)
Dewpoint: 0.0°C (32°F) [RH = 75%]
Pressure (altimeter): 30.59 inches Hg (1036.0 mb)
Winds: variable direction winds at 3 MPH (3 knots; 1.5 m/s)
Visibility: 6 or more miles (10+ km)
Ceiling: ceiling and visibility are OK
Clouds: unknown
Weather: no significant weather observed at this time

METAR text: ESSA 190450Z 26004KT 220V280 CAVOK 03/M00 Q1036 NOSIG
Conditions at: ESSA (STOCKHOLM/ARLAND, SE) observed 0450 UTC 19 April 2019
Temperature: 3.0°C (37°F)
Dewpoint: 0.0°C (32°F) [RH = 81%]
Pressure (altimeter): 30.59 inches Hg (1036.0 mb)
Winds: from the W (260 degrees) at 5 MPH (4 knots; 2.1 m/s)
Visibility: 6 or more miles (10+ km)
Ceiling: ceiling and visibility are OK
Clouds: unknown
Weather: no significant weather observed at this time

METAR text: ESSA 190420Z VRB02KT CAVOK 00/M01 Q1036 NOSIG
Conditions at: ESSA (STOCKHOLM/ARLAND, SE) observed 0420 UTC 19 April 2019
Temperature: 0.0°C (32°F)
Dewpoint: -1.0°C (30°F) [RH = 93%]
Pressure (altimeter): 30.59 inches Hg (1036.0 mb)
Winds: variable direction winds at 2 MPH (2 knots; 1.0 m/s)
Visibility: 6 or more miles (10+ km)
Ceiling: ceiling and visibility are OK
Clouds: unknown
Weather: no significant weather observed at this time

METAR text: ESSA 190350Z 19002KT CAVOK 00/M02 Q1036 NOSIG
Conditions at: ESSA (STOCKHOLM/ARLAND, SE) observed 0350 UTC 19 April 2019
Temperature: 0.0°C (32°F)
Dewpoint: -2.0°C (28°F) [RH = 86%]
Pressure (altimeter): 30.59 inches Hg (1036.0 mb)
Winds: from the S (190 degrees) at 2 MPH (2 knots; 1.0 m/s)
Visibility: 6 or more miles (10+ km)
Ceiling: ceiling and visibility are OK
Clouds: unknown
Weather: no significant weather observed at this time

METAR text: ESSA 190320Z 16002KT CAVOK 01/M01 Q1036 NOSIG
Conditions at: ESSA (STOCKHOLM/ARLAND, SE) observed 0320 UTC 19 April 2019
Temperature: 1.0°C (34°F)
Dewpoint: -1.0°C (30°F) [RH = 86%]
Pressure (altimeter): 30.59 inches Hg (1036.0 mb)
Winds: from the SSE (160 degrees) at 2 MPH (2 knots; 1.0 m/s)
Visibility: 6 or more miles (10+ km)
Ceiling: ceiling and visibility are OK
Clouds: unknown
Weather: no significant weather observed at this time

METAR text: ESSA 190250Z 08003KT CAVOK 01/M02 Q1036 NOSIG
Conditions at: ESSA (STOCKHOLM/ARLAND, SE) observed 0250 UTC 19 April 2019
Temperature: 1.0°C (34°F)
Dewpoint: -2.0°C (28°F) [RH = 80%]
Pressure (altimeter): 30.59 inches Hg (1036.0 mb)
Winds: from the E (80 degrees) at 3 MPH (3 knots; 1.5 m/s)
Visibility: 6 or more miles (10+ km)
Ceiling: ceiling and visibility are OK
Clouds: unknown
Weather: no significant weather observed at this time

METAR text: ESSA 190220Z 07003KT CAVOK 01/M01 Q1036 NOSIG
Conditions at: ESSA (STOCKHOLM/ARLAND, SE) observed 0220 UTC 19 April 2019
Temperature: 1.0°C (34°F)
Dewpoint: -1.0°C (30°F) [RH = 86%]
Pressure (altimeter): 30.59 inches Hg (1036.0 mb)
Winds: from the ENE (70 degrees) at 3 MPH (3 knots; 1.5 m/s)
Visibility: 6 or more miles (10+ km)
Ceiling: ceiling and visibility are OK
Clouds: unknown
Weather: no significant weather observed at this time

METAR text: ESSA 190150Z 04001KT CAVOK 02/M01 Q1036 NOSIG
Conditions at: ESSA (STOCKHOLM/ARLAND, SE) observed 0150 UTC 19 April 2019
Temperature: 2.0°C (36°F)
Dewpoint: -1.0°C (30°F) [RH = 80%]
Pressure (altimeter): 30.59 inches Hg (1036.0 mb)
Winds: from the NE (40 degrees) at 1 MPH (1 knots; 0.5 m/s)
Visibility: 6 or more miles (10+ km)
Ceiling: ceiling and visibility are OK
Clouds: unknown
Weather: no significant weather observed at this time

METAR text: ESSA 190120Z VRB02KT CAVOK 03/M01 Q1036 NOSIG
Conditions at: ESSA (STOCKHOLM/ARLAND, SE) observed 0120 UTC 19 April 2019
Temperature: 3.0°C (37°F)
Dewpoint: -1.0°C (30°F) [RH = 75%]
Pressure (altimeter): 30.59 inches Hg (1036.0 mb)
Winds: variable direction winds at 2 MPH (2 knots; 1.0 m/s)
Visibility: 6 or more miles (10+ km)
Ceiling: ceiling and visibility are OK
Clouds: unknown
Weather: no significant weather observed at this time

METAR text: ESSA 190050Z 14002KT CAVOK 03/M01 Q1036 NOSIG
Conditions at: ESSA (STOCKHOLM/ARLAND, SE) observed 0050 UTC 19 April 2019
Temperature: 3.0°C (37°F)
Dewpoint: -1.0°C (30°F) [RH = 75%]
Pressure (altimeter): 30.59 inches Hg (1036.0 mb)
Winds: from the SE (140 degrees) at 2 MPH (2 knots; 1.0 m/s)
Visibility: 6 or more miles (10+ km)
Ceiling: ceiling and visibility are OK
Clouds: unknown
Weather: no significant weather observed at this time

METAR text: ESSA 190020Z 16003KT CAVOK 03/M01 Q1036 NOSIG
Conditions at: ESSA (STOCKHOLM/ARLAND, SE) observed 0020 UTC 19 April 2019
Temperature: 3.0°C (37°F)
Dewpoint: -1.0°C (30°F) [RH = 75%]
Pressure (altimeter): 30.59 inches Hg (1036.0 mb)
Winds: from the SSE (160 degrees) at 3 MPH (3 knots; 1.5 m/s)
Visibility: 6 or more miles (10+ km)
Ceiling: ceiling and visibility are OK
Clouds: unknown
Weather: no significant weather observed at this time

METAR text: ESSA 182350Z 08001KT CAVOK 04/M01 Q1036 NOSIG
Conditions at: ESSA (STOCKHOLM/ARLAND, SE) observed 2350 UTC 18 April 2019
Temperature: 4.0°C (39°F)
Dewpoint: -1.0°C (30°F) [RH = 70%]
Pressure (altimeter): 30.59 inches Hg (1036.0 mb)
Winds: from the E (80 degrees) at 1 MPH (1 knots; 0.5 m/s)
Visibility: 6 or more miles (10+ km)
Ceiling: ceiling and visibility are OK
Clouds: unknown
Weather: no significant weather observed at this time

METAR text: ESSA 182320Z 07003KT CAVOK 04/M00 Q1037 NOSIG
Conditions at: ESSA (STOCKHOLM/ARLAND, SE) observed 2320 UTC 18 April 2019
Temperature: 4.0°C (39°F)
Dewpoint: 0.0°C (32°F) [RH = 75%]
Pressure (altimeter): 30.62 inches Hg (1037.0 mb)
Winds: from the ENE (70 degrees) at 3 MPH (3 knots; 1.5 m/s)
Visibility: 6 or more miles (10+ km)
Ceiling: ceiling and visibility are OK
Clouds: unknown
Weather: no significant weather observed at this time

METAR text: ESSA 182250Z 09003KT CAVOK 07/M00 Q1036 NOSIG
Conditions at: ESSA (STOCKHOLM/ARLAND, SE) observed 2250 UTC 18 April 2019
Temperature: 7.0°C (45°F)
Dewpoint: 0.0°C (32°F) [RH = 61%]
Pressure (altimeter): 30.59 inches Hg (1036.0 mb)
Winds: from the E (90 degrees) at 3 MPH (3 knots; 1.5 m/s)
Visibility: 6 or more miles (10+ km)
Ceiling: ceiling and visibility are OK
Clouds: unknown
Weather: no significant weather observed at this time

METAR text: ESSA 182220Z 20002KT CAVOK 08/M00 Q1036 NOSIG
Conditions at: ESSA (STOCKHOLM/ARLAND, SE) observed 2220 UTC 18 April 2019
Temperature: 8.0°C (46°F)
Dewpoint: 0.0°C (32°F) [RH = 57%]
Pressure (altimeter): 30.59 inches Hg (1036.0 mb)
Winds: from the SSW (200 degrees) at 2 MPH (2 knots; 1.0 m/s)
Visibility: 6 or more miles (10+ km)
Ceiling: ceiling and visibility are OK
Clouds: unknown
Weather: no significant weather observed at this time

METAR text: ESSA 182150Z 18003KT CAVOK 09/M00 Q1036 NOSIG
Conditions at: ESSA (STOCKHOLM/ARLAND, SE) observed 2150 UTC 18 April 2019
Temperature: 9.0°C (48°F)
Dewpoint: 0.0°C (32°F) [RH = 53%]
Pressure (altimeter): 30.59 inches Hg (1036.0 mb)
Winds: from the S (180 degrees) at 3 MPH (3 knots; 1.5 m/s)
Visibility: 6 or more miles (10+ km)
Ceiling: ceiling and visibility are OK
Clouds: unknown
Weather: no significant weather observed at this time

METAR text: ESSA 182120Z 18004KT CAVOK 08/M00 Q1036 NOSIG
Conditions at: ESSA (STOCKHOLM/ARLAND, SE) observed 2120 UTC 18 April 2019
Temperature: 8.0°C (46°F)
Dewpoint: 0.0°C (32°F) [RH = 57%]
Pressure (altimeter): 30.59 inches Hg (1036.0 mb)
Winds: from the S (180 degrees) at 5 MPH (4 knots; 2.1 m/s)
Visibility: 6 or more miles (10+ km)
Ceiling: ceiling and visibility are OK
Clouds: unknown
Weather: no significant weather observed at this time

METAR text: ESSA 182050Z 18003KT CAVOK 08/00 Q1036 NOSIG
Conditions at: ESSA (STOCKHOLM/ARLAND, SE) observed 2050 UTC 18 April 2019
Temperature: 8.0°C (46°F)
Dewpoint: 0.0°C (32°F) [RH = 57%]
Pressure (altimeter): 30.59 inches Hg (1036.0 mb)
Winds: from the S (180 degrees) at 3 MPH (3 knots; 1.5 m/s)
Visibility: 6 or more miles (10+ km)
Ceiling: ceiling and visibility are OK
Clouds: unknown
Weather: no significant weather observed at this time

METAR text: ESSA 182020Z 17004KT CAVOK 10/M00 Q1036 NOSIG
Conditions at: ESSA (STOCKHOLM/ARLAND, SE) observed 2020 UTC 18 April 2019
Temperature: 10.0°C (50°F)
Dewpoint: 0.0°C (32°F) [RH = 50%]
Pressure (altimeter): 30.59 inches Hg (1036.0 mb)
Winds: from the S (170 degrees) at 5 MPH (4 knots; 2.1 m/s)
Visibility: 6 or more miles (10+ km)
Ceiling: ceiling and visibility are OK
Clouds: unknown
Weather: no significant weather observed at this time

METAR text: ESSA 181950Z 17004KT CAVOK 11/M00 Q1036 NOSIG
Conditions at: ESSA (STOCKHOLM/ARLAND, SE) observed 1950 UTC 18 April 2019
Temperature: 11.0°C (52°F)
Dewpoint: 0.0°C (32°F) [RH = 47%]
Pressure (altimeter): 30.59 inches Hg (1036.0 mb)
Winds: from the S (170 degrees) at 5 MPH (4 knots; 2.1 m/s)
Visibility: 6 or more miles (10+ km)
Ceiling: ceiling and visibility are OK
Clouds: unknown
Weather: no significant weather observed at this time

METAR text: ESSA 181920Z 16003KT CAVOK 12/00 Q1036 NOSIG
Conditions at: ESSA (STOCKHOLM/ARLAND, SE) observed 1920 UTC 18 April 2019
Temperature: 12.0°C (54°F)
Dewpoint: 0.0°C (32°F) [RH = 44%]
Pressure (altimeter): 30.59 inches Hg (1036.0 mb)
Winds: from the SSE (160 degrees) at 3 MPH (3 knots; 1.5 m/s)
Visibility: 6 or more miles (10+ km)
Ceiling: ceiling and visibility are OK
Clouds: unknown
Weather: no significant weather observed at this time

METAR text: ESSA 181850Z 14005KT CAVOK 14/00 Q1036 NOSIG
Conditions at: ESSA (STOCKHOLM/ARLAND, SE) observed 1850 UTC 18 April 2019
Temperature: 14.0°C (57°F)
Dewpoint: 0.0°C (32°F) [RH = 38%]
Pressure (altimeter): 30.59 inches Hg (1036.0 mb)
Winds: from the SE (140 degrees) at 6 MPH (5 knots; 2.6 m/s)
Visibility: 6 or more miles (10+ km)
Ceiling: ceiling and visibility are OK
Clouds: unknown
Weather: no significant weather observed at this time

METAR text: ESSA 181820Z 16004KT CAVOK 15/00 Q1036 NOSIG
Conditions at: ESSA (STOCKHOLM/ARLAND, SE) observed 1820 UTC 18 April 2019
Temperature: 15.0°C (59°F)
Dewpoint: 0.0°C (32°F) [RH = 36%]
Pressure (altimeter): 30.59 inches Hg (1036.0 mb)
Winds: from the SSE (160 degrees) at 5 MPH (4 knots; 2.1 m/s)
Visibility: 6 or more miles (10+ km)
Ceiling: ceiling and visibility are OK
Clouds: unknown
Weather: no significant weather observed at this time

METAR text: ESSA 181750Z 12005KT CAVOK 16/00 Q1036 NOSIG
Conditions at: ESSA (STOCKHOLM/ARLAND, SE) observed 1750 UTC 18 April 2019
Temperature: 16.0°C (61°F)
Dewpoint: 0.0°C (32°F) [RH = 34%]
Pressure (altimeter): 30.59 inches Hg (1036.0 mb)
Winds: from the ESE (120 degrees) at 6 MPH (5 knots; 2.6 m/s)
Visibility: 6 or more miles (10+ km)
Ceiling: ceiling and visibility are OK
Clouds: unknown
Weather: no significant weather observed at this time

METAR text: ESSA 181720Z 13006KT CAVOK 16/00 Q1035 NOSIG
Conditions at: ESSA (STOCKHOLM/ARLAND, SE) observed 1720 UTC 18 April 2019
Temperature: 16.0°C (61°F)
Dewpoint: 0.0°C (32°F) [RH = 34%]
Pressure (altimeter): 30.56 inches Hg (1035.0 mb)
Winds: from the SE (130 degrees) at 7 MPH (6 knots; 3.1 m/s)
Visibility: 6 or more miles (10+ km)
Ceiling: ceiling and visibility are OK
Clouds: unknown
Weather: no significant weather observed at this time

METAR text: ESSA 181650Z 12007KT CAVOK 17/00 Q1035 NOSIG
Conditions at: ESSA (STOCKHOLM/ARLAND, SE) observed 1650 UTC 18 April 2019
Temperature: 17.0°C (63°F)
Dewpoint: 0.0°C (32°F) [RH = 32%]
Pressure (altimeter): 30.56 inches Hg (1035.0 mb)
Winds: from the ESE (120 degrees) at 8 MPH (7 knots; 3.6 m/s)
Visibility: 6 or more miles (10+ km)
Ceiling: ceiling and visibility are OK
Clouds: unknown
Weather: no significant weather observed at this time

METAR text: ESSA 181620Z 10010KT CAVOK 17/00 Q1035 NOSIG
Conditions at: ESSA (STOCKHOLM/ARLAND, SE) observed 1620 UTC 18 April 2019
Temperature: 17.0°C (63°F)
Dewpoint: 0.0°C (32°F) [RH = 32%]
Pressure (altimeter): 30.56 inches Hg (1035.0 mb)
Winds: from the E (100 degrees) at 12 MPH (10 knots; 5.1 m/s)
Visibility: 6 or more miles (10+ km)
Ceiling: ceiling and visibility are OK
Clouds: unknown
Weather: no significant weather observed at this time

METAR text: ESSA 181550Z 13009KT 090V150 CAVOK 19/M00 Q1035 NOSIG
Conditions at: ESSA (STOCKHOLM/ARLAND, SE) observed 1550 UTC 18 April 2019
Temperature: 19.0°C (66°F)
Dewpoint: 0.0°C (32°F) [RH = 28%]
Pressure (altimeter): 30.56 inches Hg (1035.0 mb)
Winds: from the SE (130 degrees) at 10 MPH (9 knots; 4.6 m/s)
Visibility: 6 or more miles (10+ km)
Ceiling: ceiling and visibility are OK
Clouds: unknown
Weather: no significant weather observed at this time

METAR text: ESSA 181520Z 09004KT 050V130 CAVOK 19/M02 Q1035 NOSIG
Conditions at: ESSA (STOCKHOLM/ARLAND, SE) observed 1520 UTC 18 April 2019
Temperature: 19.0°C (66°F)
Dewpoint: -2.0°C (28°F) [RH = 24%]
Pressure (altimeter): 30.56 inches Hg (1035.0 mb)
Winds: from the E (90 degrees) at 5 MPH (4 knots; 2.1 m/s)
Visibility: 6 or more miles (10+ km)
Ceiling: ceiling and visibility are OK
Clouds: unknown
Weather: no significant weather observed at this time

METAR text: ESSA 181450Z 08005KT 350V120 CAVOK 19/M02 Q1035 NOSIG
Conditions at: ESSA (STOCKHOLM/ARLAND, SE) observed 1450 UTC 18 April 2019
Temperature: 19.0°C (66°F)
Dewpoint: -2.0°C (28°F) [RH = 24%]
Pressure (altimeter): 30.56 inches Hg (1035.0 mb)
Winds: from the E (80 degrees) at 6 MPH (5 knots; 2.6 m/s)
Visibility: 6 or more miles (10+ km)
Ceiling: ceiling and visibility are OK
Clouds: unknown
Weather: no significant weather observed at this time

METAR text: ESSA 181420Z 33005KT 290V010 CAVOK 19/M02 Q1035 NOSIG
Conditions at: ESSA (STOCKHOLM/ARLAND, SE) observed 1420 UTC 18 April 2019
Temperature: 19.0°C (66°F)
Dewpoint: -2.0°C (28°F) [RH = 24%]
Pressure (altimeter): 30.56 inches Hg (1035.0 mb)
Winds: from the NNW (330 degrees) at 6 MPH (5 knots; 2.6 m/s)
Visibility: 6 or more miles (10+ km)
Ceiling: ceiling and visibility are OK
Clouds: unknown
Weather: no significant weather observed at this time

METAR text: ESSA 181350Z 01005KT CAVOK 19/M02 Q1035 NOSIG
Conditions at: ESSA (STOCKHOLM/ARLAND, SE) observed 1350 UTC 18 April 2019
Temperature: 19.0°C (66°F)
Dewpoint: -2.0°C (28°F) [RH = 24%]
Pressure (altimeter): 30.56 inches Hg (1035.0 mb)
Winds: from the N (10 degrees) at 6 MPH (5 knots; 2.6 m/s)
Visibility: 6 or more miles (10+ km)
Ceiling: ceiling and visibility are OK
Clouds: unknown
Weather: no significant weather observed at this time

METAR text: ESSA 181320Z 05005KT 330V110 CAVOK 19/M01 Q1035 NOSIG
Conditions at: ESSA (STOCKHOLM/ARLAND, SE) observed 1320 UTC 18 April 2019
Temperature: 19.0°C (66°F)
Dewpoint: -1.0°C (30°F) [RH = 26%]
Pressure (altimeter): 30.56 inches Hg (1035.0 mb)
Winds: from the NE (50 degrees) at 6 MPH (5 knots; 2.6 m/s)
Visibility: 6 or more miles (10+ km)
Ceiling: ceiling and visibility are OK
Clouds: unknown
Weather: no significant weather observed at this time

METAR text: ESSA 181250Z 05004KT 010V090 CAVOK 19/M00 Q1036 NOSIG
Conditions at: ESSA (STOCKHOLM/ARLAND, SE) observed 1250 UTC 18 April 2019
Temperature: 19.0°C (66°F)
Dewpoint: 0.0°C (32°F) [RH = 28%]
Pressure (altimeter): 30.59 inches Hg (1036.0 mb)
Winds: from the NE (50 degrees) at 5 MPH (4 knots; 2.1 m/s)
Visibility: 6 or more miles (10+ km)
Ceiling: ceiling and visibility are OK
Clouds: unknown
Weather: no significant weather observed at this time

METAR text: ESSA 181220Z 02006KT 340V080 CAVOK 19/M01 Q1036 NOSIG
Conditions at: ESSA (STOCKHOLM/ARLAND, SE) observed 1220 UTC 18 April 2019
Temperature: 19.0°C (66°F)
Dewpoint: -1.0°C (30°F) [RH = 26%]
Pressure (altimeter): 30.59 inches Hg (1036.0 mb)
Winds: from the NNE (20 degrees) at 7 MPH (6 knots; 3.1 m/s)
Visibility: 6 or more miles (10+ km)
Ceiling: ceiling and visibility are OK
Clouds: unknown
Weather: no significant weather observed at this time

METAR text: ESSA 181150Z 03005KT 350V070 CAVOK 18/M00 Q1036 NOSIG
Conditions at: ESSA (STOCKHOLM/ARLAND, SE) observed 1150 UTC 18 April 2019
Temperature: 18.0°C (64°F)
Dewpoint: 0.0°C (32°F) [RH = 30%]
Pressure (altimeter): 30.59 inches Hg (1036.0 mb)
Winds: from the NNE (30 degrees) at 6 MPH (5 knots; 2.6 m/s)
Visibility: 6 or more miles (10+ km)
Ceiling: ceiling and visibility are OK
Clouds: unknown
Weather: no significant weather observed at this time

METAR text: ESSA 181120Z 10005KT 040V130 CAVOK 18/M01 Q1036 NOSIG
Conditions at: ESSA (STOCKHOLM/ARLAND, SE) observed 1120 UTC 18 April 2019
Temperature: 18.0°C (64°F)
Dewpoint: -1.0°C (30°F) [RH = 28%]
Pressure (altimeter): 30.59 inches Hg (1036.0 mb)
Winds: from the E (100 degrees) at 6 MPH (5 knots; 2.6 m/s)
Visibility: 6 or more miles (10+ km)
Ceiling: ceiling and visibility are OK
Clouds: unknown
Weather: no significant weather observed at this time

METAR text: ESSA 181050Z 33006KT 250V010 CAVOK 18/M01 Q1036 NOSIG
Conditions at: ESSA (STOCKHOLM/ARLAND, SE) observed 1050 UTC 18 April 2019
Temperature: 18.0°C (64°F)
Dewpoint: -1.0°C (30°F) [RH = 28%]
Pressure (altimeter): 30.59 inches Hg (1036.0 mb)
Winds: from the NNW (330 degrees) at 7 MPH (6 knots; 3.1 m/s)
Visibility: 6 or more miles (10+ km)
Ceiling: ceiling and visibility are OK
Clouds: unknown
Weather: no significant weather observed at this time

METAR text: ESSA 181020Z 36005KT 320V040 CAVOK 17/M01 Q1036 NOSIG
Conditions at: ESSA (STOCKHOLM/ARLAND, SE) observed 1020 UTC 18 April 2019
Temperature: 17.0°C (63°F)
Dewpoint: -1.0°C (30°F) [RH = 29%]
Pressure (altimeter): 30.59 inches Hg (1036.0 mb)
Winds: from the N (360 degrees) at 6 MPH (5 knots; 2.6 m/s)
Visibility: 6 or more miles (10+ km)
Ceiling: ceiling and visibility are OK
Clouds: unknown
Weather: no significant weather observed at this time

METAR text: ESSA 180950Z VRB04KT CAVOK 16/M01 Q1037 NOSIG
Conditions at: ESSA (STOCKHOLM/ARLAND, SE) observed 0950 UTC 18 April 2019
Temperature: 16.0°C (61°F)
Dewpoint: -1.0°C (30°F) [RH = 31%]
Pressure (altimeter): 30.62 inches Hg (1037.0 mb)
Winds: variable direction winds at 5 MPH (4 knots; 2.1 m/s)
Visibility: 6 or more miles (10+ km)
Ceiling: ceiling and visibility are OK
Clouds: unknown
Weather: no significant weather observed at this time

METAR text: ESSA 180920Z 14003KT 110V210 CAVOK 16/M01 Q1037 NOSIG
Conditions at: ESSA (STOCKHOLM/ARLAND, SE) observed 0920 UTC 18 April 2019
Temperature: 16.0°C (61°F)
Dewpoint: -1.0°C (30°F) [RH = 31%]
Pressure (altimeter): 30.62 inches Hg (1037.0 mb)
Winds: from the SE (140 degrees) at 3 MPH (3 knots; 1.5 m/s)
Visibility: 6 or more miles (10+ km)
Ceiling: ceiling and visibility are OK
Clouds: unknown
Weather: no significant weather observed at this time

METAR text: ESSA 180850Z 31004KT 260V360 CAVOK 15/M00 Q1037 NOSIG
Conditions at: ESSA (STOCKHOLM/ARLAND, SE) observed 0850 UTC 18 April 2019
Temperature: 15.0°C (59°F)
Dewpoint: 0.0°C (32°F) [RH = 36%]
Pressure (altimeter): 30.62 inches Hg (1037.0 mb)
Winds: from the NW (310 degrees) at 5 MPH (4 knots; 2.1 m/s)
Visibility: 6 or more miles (10+ km)
Ceiling: ceiling and visibility are OK
Clouds: unknown
Weather: no significant weather observed at this time

METAR text: ESSA 180820Z 08004KT 050V130 CAVOK 15/00 Q1037 NOSIG
Conditions at: ESSA (STOCKHOLM/ARLAND, SE) observed 0820 UTC 18 April 2019
Temperature: 15.0°C (59°F)
Dewpoint: 0.0°C (32°F) [RH = 36%]
Pressure (altimeter): 30.62 inches Hg (1037.0 mb)
Winds: from the E (80 degrees) at 5 MPH (4 knots; 2.1 m/s)
Visibility: 6 or more miles (10+ km)
Ceiling: ceiling and visibility are OK
Clouds: unknown
Weather: no significant weather observed at this time

METAR text: ESSA 180750Z 09003KT 060V140 CAVOK 13/M00 Q1037 NOSIG
Conditions at: ESSA (STOCKHOLM/ARLAND, SE) observed 0750 UTC 18 April 2019
Temperature: 13.0°C (55°F)
Dewpoint: 0.0°C (32°F) [RH = 41%]
Pressure (altimeter): 30.62 inches Hg (1037.0 mb)
Winds: from the E (90 degrees) at 3 MPH (3 knots; 1.5 m/s)
Visibility: 6 or more miles (10+ km)
Ceiling: ceiling and visibility are OK
Clouds: unknown
Weather: no significant weather observed at this time

METAR text: ESSA 180720Z VRB02KT CAVOK 11/01 Q1037 NOSIG
Conditions at: ESSA (STOCKHOLM/ARLAND, SE) observed 0720 UTC 18 April 2019
Temperature: 11.0°C (52°F)
Dewpoint: 1.0°C (34°F) [RH = 50%]
Pressure (altimeter): 30.62 inches Hg (1037.0 mb)
Winds: variable direction winds at 2 MPH (2 knots; 1.0 m/s)
Visibility: 6 or more miles (10+ km)
Ceiling: ceiling and visibility are OK
Clouds: unknown
Weather: no significant weather observed at this time

METAR text: ESSA 180650Z VRB02KT CAVOK 09/00 Q1037 NOSIG
Conditions at: ESSA (STOCKHOLM/ARLAND, SE) observed 0650 UTC 18 April 2019
Temperature: 9.0°C (48°F)
Dewpoint: 0.0°C (32°F) [RH = 53%]
Pressure (altimeter): 30.62 inches Hg (1037.0 mb)
Winds: variable direction winds at 2 MPH (2 knots; 1.0 m/s)
Visibility: 6 or more miles (10+ km)
Ceiling: ceiling and visibility are OK
Clouds: unknown
Weather: no significant weather observed at this time

METAR text: ESSA 180620Z 27003KT CAVOK 06/00 Q1037 NOSIG
Conditions at: ESSA (STOCKHOLM/ARLAND, SE) observed 0620 UTC 18 April 2019
Temperature: 6.0°C (43°F)
Dewpoint: 0.0°C (32°F) [RH = 65%]
Pressure (altimeter): 30.62 inches Hg (1037.0 mb)
Winds: from the W (270 degrees) at 3 MPH (3 knots; 1.5 m/s)
Visibility: 6 or more miles (10+ km)
Ceiling: ceiling and visibility are OK
Clouds: unknown
Weather: no significant weather observed at this time

Forecast for: ESSA (STOCKHOLM/ARLAND, SE)
Text: TAF ESSA 191730Z 1918/2018 01005KT CAVOK
Forecast period: 1800 UTC 19 April 2019 to 1800 UTC 20 April 2019
Forecast type: FROM: standard forecast or significant change
Winds: from the N (10 degrees) at 6 MPH (5 knots; 2.6 m/s)
Visibility: 6 or more miles 10+ km)
Ceiling: unknown
Clouds: missing
Weather: NSW  (no significant weather)